Pitcher, New York
Current Conditions -  °F | °C
As of 5:15 PM on Thursday 23 Oct 2014 (Local Time) from KN03 Reporting Station
Drizzle Drizzle  
Wind Chill: 44°   Ceiling: 2100
Heat Index: 46°   Visibility: 10mi
Dew Point: 43°   Wind: 5mph
Humidity: 87%   Direction: 340°NNW
Pressure: 29.93"   Gusts: NA
Location:  42.58°N, 75.87°W
Report Text: KN03 232115Z AUTO 34004KT 10SM -DZ OVC021 08/06 A2993 RMK AO2
Loading
Personal Weather Stations






























Interactive Weather Map
Tropical Storm Tracking
New forecast layout! Learn more

10-Day Weather Forecast

Advertisements
Track Severe Weather on mobile